Buoy 33880

sailwx.info

Track history (hours):
 
Tides and Currents Weather Stations Pressure Air Temp Water Temp Dewpoint Dewpoint Depression Visibility Wind Speed Wind Dir Waves Ship Positions

Drifting buoy 33880

Last reported at 2016-May-25 14:00 UTC. Time now 2016-May-25 16:59 UTC.
Position S 41°43' W 057°04'.

Barometer 1021.3 mb
Water temperature 2.6 ° C

Date/timePositionNaut miles runAvg speedWind from/ knotsBaromVisibWave heightAir tempDewpointWater temp
2016-May-25 14:00S 41°43' W 057°04'0 0.0 1021.3 2.6
2016-May-25 13:00S 41°43' W 057°04'4 1.5 1020.3 2.6
2016-May-25 10:00S 41°46' W 057°08'2 2.3 1019.2 2.8
2016-May-25 09:00S 41°48' W 057°10'2 2.3 1018.8 2.9
2016-May-25 08:00S 41°49' W 057°13'6 1.5 1018.6 3.2
2016-May-25 04:00S 41°52' W 057°20'2 0.8 1018.7 3.6
2016-May-25 02:00S 41°53' W 057°21'3 1.1 1018.4 3.6
2016-May-24 23:00S 41°56' W 057°24'4 2.2 1019.1 3.9
2016-May-24 21:00S 41°59' W 057°29'0 0.1 1019.3 3.7
2016-May-24 20:00S 41°59' W 057°29'2 2.5 1019.5 3.5
2016-May-24 19:00S 42°00' W 057°32'6 6.1 1019.6 3.4
2016-May-24 18:00S 42°03' W 057°39'0 0.0 1020.0 3.3
2016-May-24 17:00S 42°03' W 057°39'3 0.5 1021.1 3.4
2016-May-24 11:00S 42°05' W 057°43'3 1.4 1023.5 3.1
2016-May-24 09:00S 42°07' W 057°46'1 1.4 1023.6 2.6
2016-May-24 08:00S 42°07' W 057°47'5 1.8 1023.9 2.3
2016-May-24 05:00S 42°11' W 057°53'0 0.0 1026.0 2.2
2016-May-24 04:00S 42°11' W 057°53'4 2.0 1026.2 2.0
2016-May-24 02:00S 42°13' W 057°57'2 1.0 1026.6 2.2
2016-May-24 00:00S 42°15' W 057°59'3 3.2 1026.7 2.2
2016-May-23 23:00S 42°17' W 058°02'2 0.6 1026.7 2.2
2016-May-23 20:00S 42°18' W 058°03'3 2.9 1026.8 2.4
2016-May-23 19:00S 42°21' W 058°06'8 8.3 1027.0 2.6
2016-May-23 18:00S 42°27' W 058°12'0 0.0 1026.8 2.8
2016-May-23 14:00S 42°27' W 058°12'2 1.7 1028.4 2.6
2016-May-23 13:00S 42°29' W 058°13'5 1.8 1027.8 2.6
2016-May-23 10:00S 42°32' W 058°19'8 3.8 1026.4 2.8
2016-May-23 08:00S 42°37' W 058°26'0 0.0 1025.4 3.0
2016-May-23 07:00S 42°37' W 058°26'0 0.0 1025.5 3.1
2016-May-23 06:00S 42°37' W 058°26'3 2.8 1025.4 3.5
2016-May-23 05:00S 42°39' W 058°30'0 0.2 1025.3 3.5
2016-May-23 04:00S 42°39' W 058°29'3 3.4 1025.5 3.8
2016-May-23 03:00S 42°41' W 058°33'5 2.4 1024.9 4.1
2016-May-23 01:00S 42°44' W 058°37'2 1.1 1024.5 4.3
2016-May-22 23:00S 42°45' W 058°40'3 0.9 1023.4 4.2
2016-May-22 20:00S 42°47' W 058°42'9 4.6 1021.3 3.5
2016-May-22 18:00S 42°53' W 058°52'0 0.0 1020.1 3.1
2016-May-22 17:00S 42°53' W 058°52'1 0.2 1020.0 3.0
2016-May-22 13:00S 42°53' W 058°52'5 5.0 1018.8 3.4
2016-May-22 12:00S 42°57' W 058°57'0 0.0 1018.6 3.5
2016-May-22 11:00S 42°57' W 058°57'1 1.2 1018.4 3.8
2016-May-22 10:00S 42°58' W 058°58'4 1.4 1018.0 3.8
2016-May-22 07:00S 43°01' W 059°01'0 0.0 1018.6 3.6
2016-May-22 06:00S 43°01' W 059°01'2 2.4 1018.9 3.7
2016-May-22 05:00S 43°03' W 059°03'3 1.1 1019.8 3.9
2016-May-22 02:00S 43°06' W 059°06'4 1.8 1020.8 3.3
2016-May-22 00:00S 43°09' W 059°08'6 1.5 1021.7 3.4
2016-May-21 20:00S 43°15' W 059°11'0 0.0 1022.6 2.9
2016-May-21 19:00S 43°15' W 059°11'8 1.3 1023.0 2.9
2016-May-21 13:00S 43°22' W 059°15'3 1.7 1026.8 2.5
2016-May-21 11:00S 43°26' W 059°16'2 2.4 1027.1 2.5
2016-May-21 10:00S 43°28' W 059°17'9 1.8 1026.9 2.6
2016-May-21 05:00S 43°36' W 059°21'3 0.9 1028.7 2.6
2016-May-21 02:00S 43°39' W 059°22'8 1.9 1029.1 2.5
2016-May-20 22:00S 43°46' W 059°25'0 0.0 1027.8 2.7
2016-May-20 21:00S 43°46' W 059°25'0 0.2 1027.6 2.7
2016-May-20 20:00S 43°46' W 059°24'6 5.8 1027.2 2.6
2016-May-20 19:00S 43°51' W 059°28'6 1.2 1026.6 2.7
2016-May-20 14:00S 43°57' W 059°31'1 0.5 1026.8 2.7
2016-May-20 11:00S 43°58' W 059°31'7 1.8 1024.8 2.8
2016-May-20 07:00S 44°05' W 059°34'9 1.3 1023.4 3.4
2016-May-20 00:00S 44°14' W 059°39'2 2.0 1022.8 3.9
2016-May-19 23:00S 44°15' W 059°40'3 2.9 1022.8 4.0
2016-May-19 22:00S 44°18' W 059°39'0 0.0 1022.6 4.2
2016-May-19 21:00S 44°18' W 059°39'0 0.0 1022.4 3.9
2016-May-19 20:00S 44°18' W 059°39'2 2.0 1022.5 3.8
2016-May-19 19:00S 44°20' W 059°41'2 1.9 1022.4 3.8
2016-May-19 18:00S 44°21' W 059°42'6 5.9 1022.6 3.6
2016-May-19 17:00S 44°27' W 059°44'0 0.0 1022.9 3.8
2016-May-19 14:00S 44°27' W 059°44'0 0.0 1023.8 3.3
2016-May-19 13:00S 44°27' W 059°44'7 1.2 1023.8 3.4
2016-May-19 07:00S 44°35' W 059°46'2 1.1 1023.5 2.3
2016-May-19 05:00S 44°37' W 059°46'3 2.5 1024.3 2.3
2016-May-19 04:00S 44°39' W 059°46'3 1.0 1024.4 2.3
2016-May-19 01:00S 44°42' W 059°46'2 2.2 1024.6 2.4
2016-May-19 00:00S 44°45' W 059°48'3 0.7 1024.6 2.4
2016-May-18 19:00S 44°48' W 059°48'9 1.1 1023.7 2.6
2016-May-18 11:00S 44°57' W 059°48'0 0.5 1024.1 2.6
2016-May-18 10:00S 44°58' W 059°48'5 0.9 1023.9 2.6
2016-May-18 05:00S 45°02' W 059°48'4 1.1 1024.9 2.9
2016-May-18 01:00S 45°07' W 059°49'2 1.8 1024.7 3.2
2016-May-18 00:00S 45°08' W 059°51'2 0.8 1024.7 3.2
2016-May-17 22:00S 45°10' W 059°50'2 0.6 1024.0 3.6
2016-May-17 19:00S 45°11' W 059°50'7 6.8 1023.5 3.8
2016-May-17 18:00S 45°18' W 059°51'7 0.7 1023.5 3.7
2016-May-17 08:00S 45°25' W 059°52'0 0.0 1024.2 3.2
2016-May-17 07:00S 45°25' W 059°52'1 0.6 1024.5 3.3
2016-May-17 05:00S 45°27' W 059°52'4 4.4 1024.9 3.5
2016-May-17 04:00S 45°31' W 059°53'1 0.4 1025.1 3.5
2016-May-17 02:00S 45°32' W 059°53'2 0.9 1025.8 3.7
2016-May-17 00:00S 45°33' W 059°53'3 0.9 1026.0 3.5
2016-May-16 21:00S 45°36' W 059°54'0 0.1 1026.1 3.7
2016-May-16 20:00S 45°36' W 059°54'2 1.7 1026.2 3.7
2016-May-16 19:00S 45°38' W 059°54'0 0.1 1026.2 3.7
2016-May-16 18:00S 45°38' W 059°54'5 1.2 1026.5 3.7
2016-May-16 14:00S 45°42' W 059°54'2 1.1 1028.0 4.1
2016-May-16 12:00S 45°45' W 059°55'2 1.1 1028.2 4.2
2016-May-16 10:00S 45°47' W 059°55'1 0.8 1028.3 4.5
2016-May-16 09:00S 45°48' W 059°55'1 0.9 1028.3 4.4
2016-May-16 08:00S 45°49' W 059°55'2 1.1 1028.3 4.4
2016-May-16 06:00S 45°51' W 059°55'4 1.8 1029.2 4.2
2016-May-16 04:00S 45°54' W 059°56'1 0.5 1029.6 5.0
2016-May-16 02:00S 45°55' W 059°56'3 1.3 1030.0 4.5
2016-May-16 00:00S 45°58' W 059°57'0 0.2 1030.1 4.5
2016-May-15 23:00S 45°58' W 059°57'3 1.0 1030.1 4.5
2016-May-15 20:00S 46°01' W 059°57'2 1.6 1029.4 4.6
2016-May-15 19:00S 46°02' W 059°57'4 4.2 1029.0 4.5
2016-May-15 18:00S 46°07' W 059°57'   1028.4 4.4
Track history (hours):
 
Tides and Currents Weather Stations Pressure Air Temp Water Temp Dewpoint Dewpoint Depression Visibility Wind Speed Wind Dir Waves Ship Positions

Drifting buoy 33880

Last reported at 2016-May-25 14:00 UTC. Time now 2016-May-25 16:59 UTC.
Position S 41°43' W 057°04'.

Barometer 1021.3 mb
Water temperature 2.6 ° C

Date/timePositionNaut miles runAvg speedWind from/ knotsBaromVisibWave heightAir tempDewpointWater temp
2016-May-25 14:00S 41°43' W 057°04'0 0.0 1021.3 2.6
2016-May-25 13:00S 41°43' W 057°04'4 1.5 1020.3 2.6
2016-May-25 10:00S 41°46' W 057°08'2 2.3 1019.2 2.8
2016-May-25 09:00S 41°48' W 057°10'2 2.3 1018.8 2.9
2016-May-25 08:00S 41°49' W 057°13'6 1.5 1018.6 3.2
2016-May-25 04:00S 41°52' W 057°20'2 0.8 1018.7 3.6
2016-May-25 02:00S 41°53' W 057°21'3 1.1 1018.4 3.6
2016-May-24 23:00S 41°56' W 057°24'4 2.2 1019.1 3.9
2016-May-24 21:00S 41°59' W 057°29'0 0.1 1019.3 3.7
2016-May-24 20:00S 41°59' W 057°29'2 2.5 1019.5 3.5
2016-May-24 19:00S 42°00' W 057°32'6 6.1 1019.6 3.4
2016-May-24 18:00S 42°03' W 057°39'0 0.0 1020.0 3.3
2016-May-24 17:00S 42°03' W 057°39'3 0.5 1021.1 3.4
2016-May-24 11:00S 42°05' W 057°43'3 1.4 1023.5 3.1
2016-May-24 09:00S 42°07' W 057°46'1 1.4 1023.6 2.6
2016-May-24 08:00S 42°07' W 057°47'5 1.8 1023.9 2.3
2016-May-24 05:00S 42°11' W 057°53'0 0.0 1026.0 2.2
2016-May-24 04:00S 42°11' W 057°53'4 2.0 1026.2 2.0
2016-May-24 02:00S 42°13' W 057°57'2 1.0 1026.6 2.2
2016-May-24 00:00S 42°15' W 057°59'3 3.2 1026.7 2.2
2016-May-23 23:00S 42°17' W 058°02'2 0.6 1026.7 2.2
2016-May-23 20:00S 42°18' W 058°03'3 2.9 1026.8 2.4
2016-May-23 19:00S 42°21' W 058°06'8 8.3 1027.0 2.6
2016-May-23 18:00S 42°27' W 058°12'0 0.0 1026.8 2.8
2016-May-23 14:00S 42°27' W 058°12'2 1.7 1028.4 2.6
2016-May-23 13:00S 42°29' W 058°13'5 1.8 1027.8 2.6
2016-May-23 10:00S 42°32' W 058°19'8 3.8 1026.4 2.8
2016-May-23 08:00S 42°37' W 058°26'0 0.0 1025.4 3.0
2016-May-23 07:00S 42°37' W 058°26'0 0.0 1025.5 3.1
2016-May-23 06:00S 42°37' W 058°26'3 2.8 1025.4 3.5
2016-May-23 05:00S 42°39' W 058°30'0 0.2 1025.3 3.5
2016-May-23 04:00S 42°39' W 058°29'3 3.4 1025.5 3.8
2016-May-23 03:00S 42°41' W 058°33'5 2.4 1024.9 4.1
2016-May-23 01:00S 42°44' W 058°37'2 1.1 1024.5 4.3
2016-May-22 23:00S 42°45' W 058°40'3 0.9 1023.4 4.2
2016-May-22 20:00S 42°47' W 058°42'9 4.6 1021.3 3.5
2016-May-22 18:00S 42°53' W 058°52'0 0.0 1020.1 3.1
2016-May-22 17:00S 42°53' W 058°52'1 0.2 1020.0 3.0
2016-May-22 13:00S 42°53' W 058°52'5 5.0 1018.8 3.4
2016-May-22 12:00S 42°57' W 058°57'0 0.0 1018.6 3.5
2016-May-22 11:00S 42°57' W 058°57'1 1.2 1018.4 3.8
2016-May-22 10:00S 42°58' W 058°58'4 1.4 1018.0 3.8
2016-May-22 07:00S 43°01' W 059°01'0 0.0 1018.6 3.6
2016-May-22 06:00S 43°01' W 059°01'2 2.4 1018.9 3.7
2016-May-22 05:00S 43°03' W 059°03'3 1.1 1019.8 3.9
2016-May-22 02:00S 43°06' W 059°06'4 1.8 1020.8 3.3
2016-May-22 00:00S 43°09' W 059°08'6 1.5 1021.7 3.4
2016-May-21 20:00S 43°15' W 059°11'0 0.0 1022.6 2.9
2016-May-21 19:00S 43°15' W 059°11'8 1.3 1023.0 2.9
2016-May-21 13:00S 43°22' W 059°15'3 1.7 1026.8 2.5
2016-May-21 11:00S 43°26' W 059°16'2 2.4 1027.1 2.5
2016-May-21 10:00S 43°28' W 059°17'9 1.8 1026.9 2.6
2016-May-21 05:00S 43°36' W 059°21'3 0.9 1028.7 2.6
2016-May-21 02:00S 43°39' W 059°22'8 1.9 1029.1 2.5
2016-May-20 22:00S 43°46' W 059°25'0 0.0 1027.8 2.7
2016-May-20 21:00S 43°46' W 059°25'0 0.2 1027.6 2.7
2016-May-20 20:00S 43°46' W 059°24'6 5.8 1027.2 2.6
2016-May-20 19:00S 43°51' W 059°28'6 1.2 1026.6 2.7
2016-May-20 14:00S 43°57' W 059°31'1 0.5 1026.8 2.7
2016-May-20 11:00S 43°58' W 059°31'7 1.8 1024.8 2.8
2016-May-20 07:00S 44°05' W 059°34'9 1.3 1023.4 3.4
2016-May-20 00:00S 44°14' W 059°39'2 2.0 1022.8 3.9
2016-May-19 23:00S 44°15' W 059°40'3 2.9 1022.8 4.0
2016-May-19 22:00S 44°18' W 059°39'0 0.0 1022.6 4.2
2016-May-19 21:00S 44°18' W 059°39'0 0.0 1022.4 3.9
2016-May-19 20:00S 44°18' W 059°39'2 2.0 1022.5 3.8
2016-May-19 19:00S 44°20' W 059°41'2 1.9 1022.4 3.8
2016-May-19 18:00S 44°21' W 059°42'6 5.9 1022.6 3.6
2016-May-19 17:00S 44°27' W 059°44'0 0.0 1022.9 3.8
2016-May-19 14:00S 44°27' W 059°44'0 0.0 1023.8 3.3
2016-May-19 13:00S 44°27' W 059°44'7 1.2 1023.8 3.4
2016-May-19 07:00S 44°35' W 059°46'2 1.1 1023.5 2.3
2016-May-19 05:00S 44°37' W 059°46'3 2.5 1024.3 2.3
2016-May-19 04:00S 44°39' W 059°46'3 1.0 1024.4 2.3
2016-May-19 01:00S 44°42' W 059°46'2 2.2 1024.6 2.4
2016-May-19 00:00S 44°45' W 059°48'3 0.7 1024.6 2.4
2016-May-18 19:00S 44°48' W 059°48'9 1.1 1023.7 2.6
2016-May-18 11:00S 44°57' W 059°48'0 0.5 1024.1 2.6
2016-May-18 10:00S 44°58' W 059°48'5 0.9 1023.9 2.6
2016-May-18 05:00S 45°02' W 059°48'4 1.1 1024.9 2.9
2016-May-18 01:00S 45°07' W 059°49'2 1.8 1024.7 3.2
2016-May-18 00:00S 45°08' W 059°51'2 0.8 1024.7 3.2
2016-May-17 22:00S 45°10' W 059°50'2 0.6 1024.0 3.6
2016-May-17 19:00S 45°11' W 059°50'7 6.8 1023.5 3.8
2016-May-17 18:00S 45°18' W 059°51'7 0.7 1023.5 3.7
2016-May-17 08:00S 45°25' W 059°52'0 0.0 1024.2 3.2
2016-May-17 07:00S 45°25' W 059°52'1 0.6 1024.5 3.3
2016-May-17 05:00S 45°27' W 059°52'4 4.4 1024.9 3.5
2016-May-17 04:00S 45°31' W 059°53'1 0.4 1025.1 3.5
2016-May-17 02:00S 45°32' W 059°53'2 0.9 1025.8 3.7
2016-May-17 00:00S 45°33' W 059°53'3 0.9 1026.0 3.5
2016-May-16 21:00S 45°36' W 059°54'0 0.1 1026.1 3.7
2016-May-16 20:00S 45°36' W 059°54'2 1.7 1026.2 3.7
2016-May-16 19:00S 45°38' W 059°54'0 0.1 1026.2 3.7
2016-May-16 18:00S 45°38' W 059°54'5 1.2 1026.5 3.7
2016-May-16 14:00S 45°42' W 059°54'2 1.1 1028.0 4.1
2016-May-16 12:00S 45°45' W 059°55'2 1.1 1028.2 4.2
2016-May-16 10:00S 45°47' W 059°55'1 0.8 1028.3 4.5
2016-May-16 09:00S 45°48' W 059°55'1 0.9 1028.3 4.4
2016-May-16 08:00S 45°49' W 059°55'2 1.1 1028.3 4.4
2016-May-16 06:00S 45°51' W 059°55'4 1.8 1029.2 4.2
2016-May-16 04:00S 45°54' W 059°56'1 0.5 1029.6 5.0
2016-May-16 02:00S 45°55' W 059°56'3 1.3 1030.0 4.5
2016-May-16 00:00S 45°58' W 059°57'0 0.2 1030.1 4.5
2016-May-15 23:00S 45°58' W 059°57'3 1.0 1030.1 4.5
2016-May-15 20:00S 46°01' W 059°57'2 1.6 1029.4 4.6
2016-May-15 19:00S 46°02' W 059°57'4 4.2 1029.0 4.5
2016-May-15 18:00S 46°07' W 059°57'   1028.4 4.4

Dump ship's entire track history